Time;durP1;ratioP1;P1;durP2;ratioP2;P2;SDS_P1;SDS_P2;PMS_P1;PMS_P2;Temp;Humidity;BMP_temperature;BMP_pressure;BME280_temperature;BME280_humidity;BME280_pressure;Samples;Min_cycle;Max_cycle;Signal;HPM_P1;HPM_P2
2022/02/02 00:01:06;;;;;;;15.13;3.60;;;;;;;4.91;83.63;98032.41;4917821;29;20047;-82
2022/02/02 00:03:32;;;;;;;14.40;4.07;;;;;;;4.92;83.82;98034.00;4932849;29;20428;-82
2022/02/02 00:06:13;;;;;;;20.42;5.28;;;;;;;4.96;84.13;98038.59;4932916;29;20027;-82
2022/02/02 00:08:55;;;;;;;15.18;3.75;;;;;;;4.95;83.56;98044.94;4939154;29;20032;-83
2022/02/02 00:11:56;;;;;;;20.25;5.05;;;;;;;4.95;83.87;98042.31;4927010;29;20508;-83
2022/02/02 00:16:51;;;;;;;12.95;3.50;;;;;;;4.86;83.34;98054.25;4934154;29;20094;-82
2022/02/02 00:21:46;;;;;;;20.70;5.15;;;;;;;4.85;84.30;98043.94;4940030;29;20051;-83
2022/02/02 00:24:28;;;;;;;24.42;5.90;;;;;;;4.82;84.35;98047.84;4938199;29;20051;-83
2022/02/02 00:26:57;;;;;;;22.45;4.22;;;;;;;4.86;83.36;98048.16;4940930;29;20032;-82
2022/02/02 00:29:30;;;;;;;20.88;4.15;;;;;;;4.93;84.06;98044.38;4937280;29;20059;-83
2022/02/02 00:32:04;;;;;;;18.05;4.25;;;;;;;4.87;83.76;98036.56;4939648;29;20439;-82
2022/02/02 00:34:31;;;;;;;14.82;4.28;;;;;;;4.89;83.92;98043.22;4908791;29;20026;-83
2022/02/02 00:36:57;;;;;;;11.98;3.47;;;;;;;4.72;83.67;98010.59;4908427;29;20095;-82
2022/02/02 00:39:25;;;;;;;10.60;3.83;;;;;;;4.21;83.69;97924.16;4925796;29;20548;-82
2022/02/02 00:41:53;;;;;;;18.25;3.42;;;;;;;4.59;84.22;97987.03;4941121;29;20412;-82
2022/02/02 00:44:19;;;;;;;10.70;3.00;;;;;;;4.80;84.15;98031.41;4925513;29;20111;-83
2022/02/02 00:46:45;;;;;;;8.88;2.53;;;;;;;4.69;83.70;98016.34;4922184;29;20055;-82
2022/02/02 00:49:10;;;;;;;16.80;4.10;;;;;;;4.78;83.91;98038.75;4942939;29;20035;-83
2022/02/02 00:54:06;;;;;;;9.07;3.10;;;;;;;4.85;83.56;98044.72;4940631;29;20098;-82
2022/02/02 00:56:31;;;;;;;21.08;4.03;;;;;;;4.86;83.04;98058.75;4935461;29;20071;-83
2022/02/02 00:58:57;;;;;;;10.05;3.10;;;;;;;4.81;83.71;98040.91;4926725;29;20032;-82
2022/02/02 01:01:22;;;;;;;14.75;3.17;;;;;;;4.79;83.31;98036.91;4925406;29;20789;-82
2022/02/02 01:03:48;;;;;;;7.47;3.20;;;;;;;4.84;83.63;98058.16;4940887;29;20023;-82
2022/02/02 01:06:17;;;;;;;14.27;3.05;;;;;;;4.84;83.78;98045.75;4938163;29;20038;-82
2022/02/02 01:08:53;;;;;;;20.73;3.40;;;;;;;4.79;83.18;98036.91;4938421;29;20152;-83
2022/02/02 01:29:52;;;;;;;10.57;3.90;;;;;;;4.82;83.59;98074.28;4931312;29;20042;-81
2022/02/02 01:32:17;;;;;;;14.23;4.25;;;;;;;4.82;83.68;98068.16;4917267;29;20051;-82
2022/02/02 01:34:42;;;;;;;14.38;4.05;;;;;;;4.88;83.28;98088.38;4903679;29;20035;-82
2022/02/02 01:37:08;;;;;;;21.67;4.88;;;;;;;4.84;83.42;98080.13;4919819;29;20090;-82
2022/02/02 01:39:34;;;;;;;20.90;3.72;;;;;;;4.88;83.53;98093.69;4920061;29;20470;-82
2022/02/02 01:42:02;;;;;;;12.88;4.55;;;;;;;4.87;83.73;98086.81;4935656;29;20492;-82
2022/02/02 01:47:32;;;;;;;7.35;3.33;;;;;;;4.76;83.88;98082.31;4906507;29;20509;-82
2022/02/02 01:55:04;;;;;;;11.77;2.83;;;;;;;4.78;83.79;98114.59;4916722;29;20590;-82
2022/02/02 02:00:09;;;;;;;5.90;1.95;;;;;;;4.84;83.54;98095.19;4936405;29;20432;-82
2022/02/02 02:02:35;;;;;;;8.77;2.20;;;;;;;4.78;83.39;98082.88;4937629;29;20076;-82
2022/02/02 02:05:02;;;;;;;5.97;1.63;;;;;;;4.85;83.92;98088.88;4935111;29;20032;-82
2022/02/02 02:07:27;;;;;;;4.05;1.92;;;;;;;4.84;83.74;98097.81;4919352;29;20041;-82
2022/02/02 02:09:54;;;;;;;3.40;1.67;;;;;;;4.79;83.51;98084.47;4937719;28;20118;-82
2022/02/02 02:12:19;;;;;;;5.15;1.40;;;;;;;4.66;83.95;98066.22;4940766;28;20042;-82
2022/02/02 02:14:55;;;;;;;4.57;1.50;;;;;;;4.70;83.49;98075.28;4918454;29;20024;-83
2022/02/02 02:17:23;;;;;;;2.85;1.55;;;;;;;4.78;83.76;98088.19;4916293;29;20035;-83
2022/02/02 02:19:50;;;;;;;6.50;1.40;;;;;;;4.59;83.46;98068.97;4937471;29;20127;-83
2022/02/02 02:22:25;;;;;;;8.23;1.50;;;;;;;4.65;83.88;98083.13;4945999;28;20028;-83
2022/02/02 04:01:44;;;;;;;28.23;5.75;;;;;;;4.49;83.46;98117.09;4958674;28;20080;-81
2022/02/02 04:06:44;;;;;;;24.55;4.30;;;;;;;4.56;82.98;98115.13;4945079;28;20020;-85
2022/02/02 04:09:09;;;;;;;20.38;5.00;;;;;;;4.47;83.24;98103.31;4968564;28;20034;-83
2022/02/02 04:11:44;;;;;;;20.30;4.70;;;;;;;4.55;83.26;98110.91;4953439;28;20035;-84
2022/02/02 04:38:30;;;;;;;16.75;3.70;;;;;;;4.55;83.25;98158.47;4965118;29;20042;-85
2022/02/02 04:52:08;;;;;;;17.88;3.75;;;;;;;4.63;82.98;98165.25;4926085;29;20039;-84
2022/02/02 04:57:37;;;;;;;17.48;4.50;;;;;;;4.50;82.98;98160.16;4943688;29;20032;-84
2022/02/02 05:03:21;;;;;;;14.25;2.88;;;;;;;4.48;82.46;98176.25;4941936;29;20047;-86
2022/02/02 05:07:56;;;;;;;19.33;3.88;;;;;;;4.67;82.66;98205.25;4939039;29;20032;-85
2022/02/02 05:10:37;;;;;;;8.48;3.40;;;;;;;4.66;82.47;98201.81;4944839;29;20038;-84
2022/02/02 05:16:01;;;;;;;16.83;4.60;;;;;;;4.61;82.97;98195.59;4942345;29;20144;-84
2022/02/02 05:18:56;;;;;;;11.93;3.42;;;;;;;4.68;82.37;98215.59;4924075;29;20028;-84
2022/02/02 05:41:01;;;;;;;11.55;3.45;;;;;;;4.62;82.21;98224.44;4948633;29;20540;-84
2022/02/02 05:51:10;;;;;;;7.32;3.03;;;;;;;4.51;81.87;98263.00;4943147;29;20035;-84
2022/02/02 05:53:35;;;;;;;16.73;3.78;;;;;;;4.62;81.92;98290.50;4926834;29;20031;-85
2022/02/02 05:56:03;;;;;;;14.43;3.38;;;;;;;4.58;81.59;98289.34;4940898;29;20883;-83
2022/02/02 05:58:31;;;;;;;13.73;3.00;;;;;;;4.65;81.89;98308.56;4944495;29;20051;-84
2022/02/02 06:00:58;;;;;;;13.57;3.65;;;;;;;4.63;81.44;98304.53;4942249;29;20386;-84
2022/02/02 06:03:42;;;;;;;9.88;3.42;;;;;;;4.50;81.95;98297.56;4940478;29;20036;-84
2022/02/02 06:06:09;;;;;;;18.70;3.75;;;;;;;4.64;81.88;98309.59;4938499;29;20067;-84
2022/02/02 06:08:35;;;;;;;17.02;3.72;;;;;;;4.57;81.57;98298.28;4939806;29;20532;-84
2022/02/02 06:11:04;;;;;;;9.82;2.97;;;;;;;4.58;81.50;98299.91;4942169;29;20031;-84
2022/02/02 06:13:42;;;;;;;11.63;2.95;;;;;;;4.64;81.53;98314.88;4921085;29;20031;-84
2022/02/02 06:16:08;;;;;;;15.18;4.47;;;;;;;4.64;81.95;98332.56;4943204;29;20031;-84
2022/02/02 06:18:35;;;;;;;22.55;4.63;;;;;;;4.62;81.63;98330.16;4939655;29;20144;-84
2022/02/02 06:21:05;;;;;;;15.48;3.47;;;;;;;4.61;81.57;98331.16;4938452;29;20024;-84
2022/02/02 06:23:40;;;;;;;17.27;3.72;;;;;;;4.55;81.81;98327.59;4939426;29;20167;-85
2022/02/02 06:26:13;;;;;;;11.20;3.22;;;;;;;4.42;81.95;98316.38;4902646;29;20032;-83
2022/02/02 06:28:42;;;;;;;13.13;3.20;;;;;;;4.55;81.29;98332.88;4940982;29;20560;-83
2022/02/02 06:31:10;;;;;;;13.20;3.50;;;;;;;4.62;81.99;98337.25;4941296;29;20040;-83
2022/02/02 06:33:37;;;;;;;12.27;2.80;;;;;;;4.62;81.93;98350.47;4942983;29;20035;-83
2022/02/02 06:36:05;;;;;;;17.15;3.22;;;;;;;4.60;82.05;98347.25;4920795;29;20579;-84
2022/02/02 06:38:31;;;;;;;11.48;3.92;;;;;;;4.62;81.95;98364.50;4932095;29;20043;-84
2022/02/02 06:40:59;;;;;;;15.18;3.45;;;;;;;4.54;81.66;98348.97;4938078;29;20064;-84
2022/02/02 06:43:25;;;;;;;10.10;2.90;;;;;;;4.57;81.88;98357.25;4937268;29;20087;-83
2022/02/02 06:45:51;;;;;;;10.98;3.08;;;;;;;4.56;81.78;98360.91;4935724;29;20473;-83
2022/02/02 06:48:17;;;;;;;14.65;3.53;;;;;;;4.52;82.08;98365.00;4926341;29;20039;-83
2022/02/02 06:50:55;;;;;;;13.38;3.78;;;;;;;4.42;82.15;98372.66;4941215;29;20070;-83
2022/02/02 06:53:44;;;;;;;16.35;4.00;;;;;;;4.59;81.87;98375.50;4942815;29;20047;-83
2022/02/02 06:59:20;;;;;;;17.75;3.53;;;;;;;4.59;81.42;98391.38;4939309;29;21670;-83
2022/02/02 07:10:44;;;;;;;6.82;3.60;;;;;;;4.49;81.31;98410.41;4938913;29;20028;-83
2022/02/02 07:13:29;;;;;;;19.38;3.83;;;;;;;4.53;81.46;98418.69;4942016;29;20067;-82
2022/02/02 07:16:12;;;;;;;16.88;3.15;;;;;;;4.48;81.57;98413.25;4943343;29;20034;-83
2022/02/02 07:18:56;;;;;;;16.73;3.33;;;;;;;4.56;81.17;98429.59;4938156;29;20433;-82
2022/02/02 07:21:40;;;;;;;21.42;4.22;;;;;;;4.40;81.40;98405.63;4936401;29;20035;-83
2022/02/02 07:32:20;;;;;;;24.45;4.18;;;;;;;4.49;81.07;98465.06;4943156;29;20051;-83
2022/02/02 07:34:54;;;;;;;15.75;3.80;;;;;;;4.54;81.08;98473.16;4938051;29;20031;-85
2022/02/02 07:37:33;;;;;;;21.77;4.78;;;;;;;4.54;81.08;98479.22;4937646;29;20038;-84
2022/02/02 07:40:03;;;;;;;23.90;4.32;;;;;;;4.50;81.13;98477.25;4937156;29;20024;-84
2022/02/02 07:42:30;;;;;;;20.10;4.78;;;;;;;4.60;80.93;98487.31;4924233;29;20058;-85
2022/02/02 07:45:05;;;;;;;14.50;4.28;;;;;;;4.47;81.25;98477.69;4936007;29;20035;-85
2022/02/02 07:47:33;;;;;;;14.75;4.00;;;;;;;4.57;80.78;98480.63;4935503;29;20062;-85
2022/02/02 07:50:03;;;;;;;21.63;3.88;;;;;;;4.55;80.96;98470.28;4936687;28;20028;-85
2022/02/02 07:52:30;;;;;;;20.38;4.22;;;;;;;4.60;80.83;98490.78;4929510;29;20034;-84
2022/02/02 07:54:58;;;;;;;16.15;4.00;;;;;;;4.44;81.11;98451.69;4939274;29;20087;-84
2022/02/02 07:57:28;;;;;;;19.70;4.95;;;;;;;4.50;81.46;98459.56;4938509;29;20031;-83
2022/02/02 08:00:09;;;;;;;20.05;5.47;;;;;;;4.52;80.78;98469.94;4927285;29;20035;-82
2022/02/02 08:02:53;;;;;;;24.00;4.25;;;;;;;4.54;81.01;98483.72;4912858;29;20492;-81
2022/02/02 08:05:19;;;;;;;16.70;3.83;;;;;;;4.43;80.96;98472.03;4935434;29;20091;-84
2022/02/02 08:07:55;;;;;;;22.85;5.32;;;;;;;4.37;80.95;98461.53;4934588;29;20031;-84
2022/02/02 08:10:22;;;;;;;24.80;5.28;;;;;;;4.40;80.71;98461.91;4935395;29;20118;-84
2022/02/02 08:12:56;;;;;;;19.77;6.50;;;;;;;4.54;80.87;98486.38;4921601;29;20034;-84
2022/02/02 08:15:24;;;;;;;25.67;4.78;;;;;;;4.63;80.49;98511.47;4941506;28;20480;-84
2022/02/02 08:17:52;;;;;;;19.75;4.88;;;;;;;4.65;80.58;98503.34;4945709;28;20111;-84
2022/02/02 08:20:18;;;;;;;30.63;5.90;;;;;;;4.59;80.71;98502.38;4938183;29;20051;-86
2022/02/02 08:22:44;;;;;;;23.90;5.18;;;;;;;4.69;80.40;98510.63;4938507;29;20043;-83
2022/02/02 08:25:12;;;;;;;22.45;5.25;;;;;;;4.64;81.08;98512.28;4927587;29;20024;-86
2022/02/02 08:27:40;;;;;;;18.92;4.35;;;;;;;4.64;80.19;98509.63;4945861;23;20029;-83
2022/02/02 08:30:11;;;;;;;18.15;4.32;;;;;;;4.73;80.41;98530.28;4967923;28;20035;-84
2022/02/02 08:32:45;;;;;;;14.85;4.05;;;;;;;4.74;81.00;98528.47;4976224;28;20055;-82
2022/02/02 08:35:11;;;;;;;21.38;5.07;;;;;;;4.65;80.58;98514.72;4962330;28;20024;-83
2022/02/02 08:37:40;;;;;;;26.33;6.30;;;;;;;4.76;80.94;98523.75;4959731;29;20035;-84
2022/02/02 08:40:24;;;;;;;16.10;3.70;;;;;;;4.77;81.07;98531.47;4953528;29;20016;-83
2022/02/02 08:42:50;;;;;;;31.02;4.90;;;;;;;4.81;80.83;98539.75;4958916;28;20032;-83
2022/02/02 08:45:23;;;;;;;18.95;4.45;;;;;;;4.78;80.89;98543.66;4953120;28;20025;-83
2022/02/02 08:47:57;;;;;;;28.95;6.00;;;;;;;4.80;80.86;98540.81;4975160;28;20039;-82
2022/02/02 08:50:29;;;;;;;18.35;3.95;;;;;;;4.86;80.82;98542.56;4986334;28;20015;-84
2022/02/02 08:52:59;;;;;;;27.00;4.50;;;;;;;4.80;80.58;98548.72;4981865;28;20039;-82
2022/02/02 08:55:50;;;;;;;16.65;4.20;;;;;;;4.88;80.81;98546.59;4965727;28;20035;-84
2022/02/02 08:58:32;;;;;;;20.83;4.70;;;;;;;4.89;80.36;98561.44;4961811;29;20055;-85
2022/02/02 09:01:00;;;;;;;27.98;4.63;;;;;;;4.90;79.91;98559.59;4973693;28;20035;-84
2022/02/02 09:06:12;;;;;;;16.85;4.80;;;;;;;4.94;79.45;98574.00;4970631;28;20045;-83
2022/02/02 09:08:37;;;;;;;38.58;5.07;;;;;;;4.90;80.17;98578.94;4961641;29;20068;-84
2022/02/02 09:23:10;;;;;;;18.83;4.50;;;;;;;4.92;79.67;98584.00;4960003;29;20039;-83
2022/02/02 09:35:35;;;;;;;22.15;4.93;;;;;;;4.97;79.61;98605.31;4966371;28;20046;-83
2022/02/02 09:38:02;;;;;;;24.08;5.25;;;;;;;5.01;79.28;98609.94;4951409;29;20031;-84
2022/02/02 09:42:57;;;;;;;21.85;5.13;;;;;;;4.96;79.85;98609.78;4961323;28;20024;-83
2022/02/02 09:45:25;;;;;;;21.55;4.28;;;;;;;4.97;80.25;98629.94;4935938;29;20034;-84
2022/02/02 09:48:01;;;;;;;22.90;4.25;;;;;;;4.97;80.19;98629.09;4963645;28;20056;-85
2022/02/02 09:50:33;;;;;;;21.17;4.75;;;;;;;4.94;80.37;98622.41;4948150;29;20504;-85
2022/02/02 09:53:02;;;;;;;21.52;5.18;;;;;;;4.99;81.24;98634.97;4950909;29;20045;-85
2022/02/02 09:58:26;;;;;;;25.88;5.93;;;;;;;5.04;80.84;98632.50;4965374;28;20056;-85
2022/02/02 10:02:15;;;;;;;27.75;5.47;;;;;;;5.05;81.02;98637.56;4967588;28;20047;-84
2022/02/02 10:04:25;;;;;;;21.25;4.65;;;;;;;5.06;80.76;98641.84;4955261;29;20045;-84
2022/02/02 10:07:24;;;;;;;35.00;5.63;;;;;;;5.03;81.15;98622.94;4944010;28;20070;-84
2022/02/02 10:15:33;;;;;;;15.05;5.38;;;;;;;5.09;80.69;98644.03;4960603;28;20029;-84
2022/02/02 10:18:03;;;;;;;18.92;4.00;;;;;;;5.10;81.26;98650.13;4964652;28;20023;-85
2022/02/02 10:20:31;;;;;;;19.38;4.75;;;;;;;5.11;81.04;98657.84;4959235;28;20042;-84
2022/02/02 10:22:59;;;;;;;16.27;5.38;;;;;;;5.10;80.90;98642.22;4966915;28;20042;-84
2022/02/02 10:25:37;;;;;;;23.65;7.53;;;;;;;5.08;80.27;98649.56;4967796;28;20031;-84
2022/02/02 10:28:05;;;;;;;25.50;4.30;;;;;;;5.11;80.47;98667.66;4975905;28;20032;-84
2022/02/02 10:30:32;;;;;;;17.73;4.53;;;;;;;4.92;80.16;98642.97;4954807;29;20129;-84
2022/02/02 10:32:58;;;;;;;19.02;3.83;;;;;;;5.11;80.20;98673.72;4954974;28;20027;-88
2022/02/02 10:35:35;;;;;;;19.98;4.80;;;;;;;5.10;79.89;98671.31;4937616;29;20036;-84
2022/02/02 10:38:06;;;;;;;18.15;4.30;;;;;;;5.12;80.19;98677.19;4956707;28;20036;-84
2022/02/02 10:40:45;;;;;;;19.55;4.63;;;;;;;4.95;80.33;98652.31;4944683;29;20046;-84
2022/02/02 10:43:33;;;;;;;18.30;4.90;;;;;;;5.10;80.15;98676.59;4948270;29;20047;-84
2022/02/02 10:46:25;;;;;;;24.35;4.07;;;;;;;5.10;80.34;98689.81;4962789;28;20031;-84
2022/02/02 10:49:05;;;;;;;20.45;4.45;;;;;;;5.10;80.39;98698.56;4968405;28;20047;-84
2022/02/02 10:51:43;;;;;;;16.08;5.13;;;;;;;5.02;80.01;98701.47;4971526;28;20095;-83
2022/02/02 11:01:47;;;;;;;19.30;5.28;;;;;;;5.19;80.38;98720.25;4973617;28;20015;-84
2022/02/02 11:06:58;;;;;;;14.02;4.30;;;;;;;5.29;80.30;98731.16;4957950;29;20030;-83
2022/02/02 11:09:25;;;;;;;18.27;5.00;;;;;;;5.33;80.03;98737.63;4947895;29;20111;-83
2022/02/02 11:11:53;;;;;;;14.45;3.78;;;;;;;5.26;80.19;98718.38;4948628;29;20027;-82
2022/02/02 11:14:33;;;;;;;30.65;5.03;;;;;;;5.26;79.58;98713.88;4952571;29;20034;-84
2022/02/02 11:17:38;;;;;;;19.08;4.78;;;;;;;5.37;78.58;98722.97;4967181;28;20030;-84
2022/02/02 11:20:06;;;;;;;20.10;4.75;;;;;;;5.22;78.37;98717.97;4937832;28;20057;-87
2022/02/02 11:22:33;;;;;;;20.63;3.60;;;;;;;5.27;77.80;98720.78;4942959;28;20443;-87
2022/02/02 11:25:20;;;;;;;29.80;4.85;;;;;;;5.29;78.01;98726.69;4934513;29;20098;-87
2022/02/02 11:27:54;;;;;;;17.60;4.63;;;;;;;5.07;78.00;98698.19;4937435;28;20031;-87
2022/02/02 11:30:23;;;;;;;13.45;4.50;;;;;;;5.42;77.87;98749.56;4941449;29;20058;-88
2022/02/02 11:33:00;;;;;;;11.90;3.67;;;;;;;4.77;77.86;98634.56;4934471;28;20034;-88
2022/02/02 11:38:17;;;;;;;19.10;4.47;;;;;;;4.83;77.85;98633.69;4936284;29;20028;-88
2022/02/02 11:41:14;;;;;;;15.73;3.40;;;;;;;4.84;77.19;98645.91;4944354;29;20030;-87
2022/02/02 11:44:03;;;;;;;;;;;;;;;5.41;78.26;98747.97;4941538;29;20031;-86
2022/02/02 11:47:19;;;;;;;17.65;4.32;;;;;;;5.39;78.52;98741.25;4937951;29;20560;-86
2022/02/02 11:49:48;;;;;;;11.95;3.33;;;;;;;5.42;78.61;98752.22;4936853;29;20043;-86
2022/02/02 11:52:40;;;;;;;16.45;4.90;;;;;;;5.36;78.95;98739.84;4929866;29;20082;-86
2022/02/02 11:55:12;;;;;;;13.13;3.63;;;;;;;5.40;78.70;98748.16;4966849;28;20034;-87
2022/02/02 11:58:00;;;;;;;15.32;3.42;;;;;;;5.56;77.97;98774.91;4949430;29;20034;-87
2022/02/02 12:00:38;;;;;;;11.23;3.10;;;;;;;5.38;77.71;98743.09;4949602;28;20042;-90
2022/02/02 12:09:55;;;;;;;14.60;3.08;;;;;;;5.51;76.11;98787.97;5118195;23;20055;-86
2022/02/02 12:57:21;;;;;;;13.82;3.55;;;;;;;6.07;74.79;98766.66;4918697;29;20044;-87
2022/02/02 13:02:19;;;;;;;20.38;3.95;;;;;;;6.13;73.73;98776.38;4919681;29;20031;-89
2022/02/02 13:04:46;;;;;;;18.70;3.33;;;;;;;5.77;73.68;98724.16;4918245;29;20445;-89
2022/02/02 13:07:19;;;;;;;13.18;3.15;;;;;;;6.18;73.68;98800.34;4918338;29;20028;-89
2022/02/02 13:09:47;;;;;;;14.35;3.20;;;;;;;6.19;73.75;98801.16;4917442;29;20248;-88
2022/02/02 13:12:22;;;;;;;9.77;3.13;;;;;;;6.16;74.28;98802.41;4901609;29;20686;-88
2022/02/02 13:17:56;;;;;;;11.23;3.88;;;;;;;6.13;74.46;98813.47;4917851;29;20452;-87
2022/02/02 13:23:39;;;;;;;15.68;3.08;;;;;;;6.02;74.69;98838.03;4918990;29;20121;-90
2022/02/02 13:26:21;;;;;;;10.52;3.50;;;;;;;6.00;75.77;98856.81;4934265;29;20043;-90
2022/02/02 13:34:58;;;;;;;11.65;3.60;;;;;;;5.93;76.33;98857.88;4922889;29;20547;-89
2022/02/02 13:51:40;;;;;;;10.43;2.72;;;;;;;5.82;77.27;98880.56;4955178;28;20023;-87
2022/02/02 13:54:18;;;;;;;11.82;2.83;;;;;;;5.70;78.36;98861.09;4939471;29;20032;-87
2022/02/02 13:57:06;;;;;;;9.30;2.22;;;;;;;5.78;77.87;98873.28;4904694;29;20055;-87
2022/02/02 14:02:19;;;;;;;6.57;2.05;;;;;;;5.74;78.40;98886.16;4919310;29;20491;-89
2022/02/02 14:07:57;;;;;;;9.70;1.90;;;;;;;5.67;78.17;98895.97;4936260;29;20126;-88
2022/02/02 14:10:27;;;;;;;8.98;1.92;;;;;;;5.68;78.41;98891.50;4943594;29;20075;-88
2022/02/02 14:32:24;;;;;;;5.78;1.90;;;;;;;5.63;78.74;98949.56;4892449;29;20116;-87
2022/02/02 14:34:49;;;;;;;7.28;2.33;;;;;;;5.42;78.67;98916.28;4902847;29;20075;-87
2022/02/02 14:37:19;;;;;;;8.57;1.75;;;;;;;5.41;79.02;98913.88;4924533;29;20035;-87
2022/02/02 14:39:59;;;;;;;6.30;1.85;;;;;;;5.64;78.35;98957.28;4924539;29;20042;-87
2022/02/02 14:42:30;;;;;;;5.97;2.55;;;;;;;5.48;79.20;98943.75;4921688;29;20420;-86
2022/02/02 14:45:03;;;;;;;8.05;2.13;;;;;;;5.50;78.55;98955.75;4909067;29;20031;-88
2022/02/02 14:47:36;;;;;;;4.72;1.85;;;;;;;5.48;79.49;98957.81;4919759;29;20040;-86
2022/02/02 14:50:22;;;;;;;6.82;2.40;;;;;;;5.59;78.74;98993.38;4918876;29;20035;-87
2022/02/02 14:53:37;;;;;;;6.65;2.20;;;;;;;5.55;79.77;98978.97;4930553;29;20031;-86
2022/02/02 15:56:36;;;;;;;8.65;2.30;;;;;;;4.87;80.44;99054.53;4947640;29;20058;-86
2022/02/02 15:58:42;;;;;;;9.32;2.60;;;;;;;3.95;80.11;98898.78;4949596;29;20038;-86
2022/02/02 16:04:01;;;;;;;9.40;2.72;;;;;;;3.65;79.89;98858.78;4955140;29;20110;-86
2022/02/02 16:06:28;;;;;;;7.90;2.42;;;;;;;4.44;79.73;98996.84;4941558;29;20102;-86
2022/02/02 16:09:13;;;;;;;7.78;2.25;;;;;;;3.73;79.75;98876.25;4959870;28;20042;-86
2022/02/02 16:11:44;;;;;;;8.18;2.42;;;;;;;4.60;80.36;99018.56;4941955;29;20147;-87
2022/02/02 16:14:21;;;;;;;8.55;2.95;;;;;;;4.51;80.10;98991.53;4964472;28;20042;-86
2022/02/02 16:19:28;;;;;;;10.23;3.07;;;;;;;4.38;79.91;98981.81;4963706;28;20043;-86
2022/02/02 16:25:04;;;;;;;7.75;3.05;;;;;;;4.70;80.13;99034.81;4961353;29;20531;-86
2022/02/02 16:33:40;;;;;;;11.95;2.78;;;;;;;4.74;80.35;99075.72;4961199;29;20404;-86
2022/02/02 16:38:19;;;;;;;11.43;2.92;;;;;;;4.69;80.33;99094.00;4946356;28;20030;-86
2022/02/02 16:40:49;;;;;;;11.27;2.50;;;;;;;4.62;80.34;99083.44;4944746;29;20033;-88
2022/02/02 16:43:14;;;;;;;10.30;2.85;;;;;;;4.61;80.56;99089.72;4955542;29;20504;-86
2022/02/02 16:45:48;;;;;;;10.40;2.80;;;;;;;4.29;80.16;99051.72;4969475;28;20027;-86
2022/02/02 16:48:16;;;;;;;12.75;2.53;;;;;;;4.52;80.26;99077.75;4939883;29;20031;-86
2022/02/02 16:50:45;;;;;;;8.80;3.20;;;;;;;4.56;80.00;99106.19;4938411;29;20031;-86
2022/02/02 17:31:21;;;;;;;13.60;2.88;;;;;;;3.72;80.71;99096.31;4933896;29;20042;-86
2022/02/02 17:33:54;;;;;;;4.95;2.78;;;;;;;3.45;80.49;99063.75;4952348;29;20094;-87
2022/02/02 17:36:38;;;;;;;10.10;3.97;;;;;;;3.67;80.26;99096.91;4939907;29;20416;-87
2022/02/02 17:39:20;;;;;;;10.75;3.53;;;;;;;3.23;80.58;99027.16;4934597;29;20069;-87
2022/02/02 17:56:27;;;;;;;9.65;3.47;;;;;;;3.30;80.17;99062.28;4956094;29;20030;-87
2022/02/02 18:13:35;;;;;;;10.55;3.95;;;;;;;3.97;80.28;99202.22;4960059;29;20061;-86
2022/02/02 18:16:24;;;;;;;10.30;3.42;;;;;;;2.69;79.74;99001.53;4947574;29;20039;-86
2022/02/02 18:19:15;;;;;;;8.82;3.85;;;;;;;2.59;79.40;98982.63;4961565;28;20026;-87
2022/02/02 18:21:35;;;;;;;12.05;3.33;;;;;;;3.28;80.19;99094.09;4938226;29;20409;-86
2022/02/02 18:26:55;;;;;;;7.53;3.00;;;;;;;3.42;80.64;99126.66;4939529;29;20027;-86
2022/02/02 18:32:14;;;;;;;14.45;3.15;;;;;;;2.84;79.96;99036.47;4960397;29;20064;-86
2022/02/02 18:34:49;;;;;;;8.07;2.95;;;;;;;3.83;80.00;99182.88;4966132;28;20014;-86
2022/02/02 18:45:41;;;;;;;15.80;3.70;;;;;;;3.69;80.07;99204.94;4960220;28;20093;-87
2022/02/02 18:53:53;;;;;;;10.05;3.72;;;;;;;2.76;80.13;99067.44;4965236;28;20273;-87
2022/02/02 18:56:45;;;;;;;10.30;3.22;;;;;;;2.66;80.20;99077.53;4950599;29;20039;-87
2022/02/02 19:02:56;;;;;;;12.38;5.25;;;;;;;3.23;80.15;99169.56;4964811;28;20035;-87
2022/02/02 20:12:42;;;;;;;;;;;;;;;;;;;;;
2022/02/02 20:15:13;;;;;;;14.27;5.45;;;;;;;2.92;80.13;99215.59;4960142;29;20107;-88
2022/02/02 20:17:40;;;;;;;16.23;5.20;;;;;;;2.73;80.30;99181.97;4960204;28;20033;-88
2022/02/02 20:20:24;;;;;;;12.45;5.75;;;;;;;2.70;80.36;99173.63;4959726;29;20046;-86
2022/02/02 20:22:52;;;;;;;11.35;5.13;;;;;;;2.87;80.18;99214.53;4958546;29;20031;-87
2022/02/02 20:25:19;;;;;;;18.95;6.88;;;;;;;3.21;80.05;99267.31;4956012;28;20031;-90
2022/02/02 20:28:04;;;;;;;15.13;5.35;;;;;;;1.97;80.08;99071.25;4952273;28;20031;-90
2022/02/02 20:30:41;;;;;;;14.13;5.57;;;;;;;3.08;80.46;99247.97;4920202;29;20043;-88
